sensor_id;sensor_type;location;lat;lon;timestamp;P1;durP1;ratioP1;P2;durP2;ratioP2
37409;SDS011;23275;48.914;12.566;2023-04-01T00:00:15;4.15;;;0.88;;
37409;SDS011;23275;48.914;12.566;2023-04-01T00:02:41;6.60;;;1.20;;
37409;SDS011;23275;48.914;12.566;2023-04-01T00:05:07;4.30;;;0.60;;
37409;SDS011;23275;48.914;12.566;2023-04-01T00:07:35;7.10;;;0.85;;
37409;SDS011;23275;48.914;12.566;2023-04-01T00:10:02;6.65;;;0.80;;
37409;SDS011;23275;48.914;12.566;2023-04-01T00:12:32;9.00;;;1.30;;
37409;SDS011;23275;48.914;12.566;2023-04-01T00:14:58;5.18;;;0.80;;
37409;SDS011;23275;48.914;12.566;2023-04-01T00:17:23;2.20;;;0.47;;
37409;SDS011;23275;48.914;12.566;2023-04-01T00:19:49;3.58;;;0.60;;
37409;SDS011;23275;48.914;12.566;2023-04-01T00:22:14;2.28;;;0.70;;
37409;SDS011;23275;48.914;12.566;2023-04-01T00:24:40;3.55;;;0.50;;
37409;SDS011;23275;48.914;12.566;2023-04-01T00:27:06;6.35;;;0.75;;
37409;SDS011;23275;48.914;12.566;2023-04-01T00:29:33;2.92;;;0.60;;
37409;SDS011;23275;48.914;12.566;2023-04-01T00:31:59;4.32;;;0.88;;
37409;SDS011;23275;48.914;12.566;2023-04-01T00:34:24;2.20;;;0.50;;
37409;SDS011;23275;48.914;12.566;2023-04-01T00:36:50;2.45;;;0.60;;
37409;SDS011;23275;48.914;12.566;2023-04-01T00:39:17;4.13;;;0.60;;
37409;SDS011;23275;48.914;12.566;2023-04-01T00:41:43;2.45;;;0.50;;
37409;SDS011;23275;48.914;12.566;2023-04-01T00:44:17;2.60;;;0.63;;
37409;SDS011;23275;48.914;12.566;2023-04-01T00:46:45;2.17;;;0.47;;
37409;SDS011;23275;48.914;12.566;2023-04-01T00:49:12;2.78;;;0.60;;
37409;SDS011;23275;48.914;12.566;2023-04-01T00:51:38;3.45;;;0.52;;
37409;SDS011;23275;48.914;12.566;2023-04-01T00:54:05;6.18;;;0.60;;
37409;SDS011;23275;48.914;12.566;2023-04-01T00:56:34;3.55;;;0.68;;
37409;SDS011;23275;48.914;12.566;2023-04-01T00:59:08;3.28;;;0.60;;
37409;SDS011;23275;48.914;12.566;2023-04-01T01:01:38;1.85;;;0.65;;
37409;SDS011;23275;48.914;12.566;2023-04-01T01:04:04;2.15;;;0.55;;
37409;SDS011;23275;48.914;12.566;2023-04-01T01:09:06;2.00;;;0.40;;
37409;SDS011;23275;48.914;12.566;2023-04-01T01:14:47;1.80;;;0.30;;
37409;SDS011;23275;48.914;12.566;2023-04-01T01:28:15;4.45;;;0.40;;
37409;SDS011;23275;48.914;12.566;2023-04-01T01:30:54;4.22;;;0.40;;
37409;SDS011;23275;48.914;12.566;2023-04-01T01:33:36;1.88;;;0.32;;
37409;SDS011;23275;48.914;12.566;2023-04-01T01:36:31;2.90;;;0.50;;
37409;SDS011;23275;48.914;12.566;2023-04-01T01:39:05;1.95;;;0.35;;
37409;SDS011;23275;48.914;12.566;2023-04-01T01:41:31;1.37;;;0.40;;
37409;SDS011;23275;48.914;12.566;2023-04-01T01:43:58;1.50;;;0.20;;
37409;SDS011;23275;48.914;12.566;2023-04-01T01:46:27;0.82;;;0.30;;
37409;SDS011;23275;48.914;12.566;2023-04-01T01:48:55;2.28;;;0.32;;
37409;SDS011;23275;48.914;12.566;2023-04-01T01:51:22;2.42;;;0.38;;
37409;SDS011;23275;48.914;12.566;2023-04-01T01:53:49;1.73;;;0.25;;
37409;SDS011;23275;48.914;12.566;2023-04-01T01:56:15;1.35;;;0.30;;
37409;SDS011;23275;48.914;12.566;2023-04-01T01:58:45;4.70;;;0.40;;
37409;SDS011;23275;48.914;12.566;2023-04-01T02:01:14;2.83;;;0.35;;
37409;SDS011;23275;48.914;12.566;2023-04-01T02:03:47;2.30;;;0.35;;
37409;SDS011;23275;48.914;12.566;2023-04-01T02:06:15;1.25;;;0.30;;
37409;SDS011;23275;48.914;12.566;2023-04-01T02:09:05;1.90;;;0.30;;
37409;SDS011;23275;48.914;12.566;2023-04-01T02:14:05;1.95;;;0.40;;
37409;SDS011;23275;48.914;12.566;2023-04-01T02:16:54;1.55;;;0.30;;
37409;SDS011;23275;48.914;12.566;2023-04-01T02:19:38;2.38;;;0.35;;
37409;SDS011;23275;48.914;12.566;2023-04-01T02:22:07;1.35;;;0.30;;
37409;SDS011;23275;48.914;12.566;2023-04-01T02:24:38;0.82;;;0.30;;
37409;SDS011;23275;48.914;12.566;2023-04-01T02:27:06;3.22;;;0.30;;
37409;SDS011;23275;48.914;12.566;2023-04-01T02:29:32;2.53;;;0.43;;
37409;SDS011;23275;48.914;12.566;2023-04-01T02:31:58;1.45;;;0.30;;
37409;SDS011;23275;48.914;12.566;2023-04-01T02:34:24;1.55;;;0.47;;
37409;SDS011;23275;48.914;12.566;2023-04-01T02:36:51;2.50;;;0.73;;
37409;SDS011;23275;48.914;12.566;2023-04-01T02:39:18;2.50;;;0.70;;
37409;SDS011;23275;48.914;12.566;2023-04-01T02:41:44;3.13;;;1.10;;
37409;SDS011;23275;48.914;12.566;2023-04-01T02:44:12;1.52;;;0.38;;
37409;SDS011;23275;48.914;12.566;2023-04-01T02:46:39;4.13;;;1.08;;
37409;SDS011;23275;48.914;12.566;2023-04-01T02:49:05;2.67;;;0.60;;
37409;SDS011;23275;48.914;12.566;2023-04-01T02:51:31;3.28;;;0.40;;
37409;SDS011;23275;48.914;12.566;2023-04-01T02:53:57;2.75;;;0.50;;
37409;SDS011;23275;48.914;12.566;2023-04-01T02:56:22;1.67;;;0.30;;
37409;SDS011;23275;48.914;12.566;2023-04-01T02:58:48;1.15;;;0.35;;
37409;SDS011;23275;48.914;12.566;2023-04-01T03:01:14;1.38;;;0.28;;
37409;SDS011;23275;48.914;12.566;2023-04-01T03:03:39;1.25;;;0.32;;
37409;SDS011;23275;48.914;12.566;2023-04-01T03:06:06;1.08;;;0.30;;
37409;SDS011;23275;48.914;12.566;2023-04-01T03:08:33;2.30;;;0.63;;
37409;SDS011;23275;48.914;12.566;2023-04-01T03:10:59;4.00;;;0.50;;
37409;SDS011;23275;48.914;12.566;2023-04-01T03:13:25;4.25;;;0.50;;
37409;SDS011;23275;48.914;12.566;2023-04-01T03:15:50;1.48;;;0.40;;
37409;SDS011;23275;48.914;12.566;2023-04-01T03:18:16;2.05;;;0.30;;
37409;SDS011;23275;48.914;12.566;2023-04-01T03:20:42;1.65;;;0.40;;
37409;SDS011;23275;48.914;12.566;2023-04-01T03:23:07;3.00;;;0.28;;
37409;SDS011;23275;48.914;12.566;2023-04-01T03:25:33;2.10;;;0.38;;
37409;SDS011;23275;48.914;12.566;2023-04-01T03:27:59;6.05;;;0.40;;
37409;SDS011;23275;48.914;12.566;2023-04-01T03:30:24;2.30;;;0.57;;
37409;SDS011;23275;48.914;12.566;2023-04-01T03:32:50;1.42;;;0.30;;
37409;SDS011;23275;48.914;12.566;2023-04-01T03:35:16;3.28;;;0.50;;
37409;SDS011;23275;48.914;12.566;2023-04-01T03:37:42;2.75;;;0.32;;
37409;SDS011;23275;48.914;12.566;2023-04-01T03:40:08;1.75;;;0.70;;
37409;SDS011;23275;48.914;12.566;2023-04-01T03:42:34;2.03;;;0.40;;
37409;SDS011;23275;48.914;12.566;2023-04-01T03:45:00;3.00;;;0.47;;
37409;SDS011;23275;48.914;12.566;2023-04-01T03:47:25;0.68;;;0.20;;
37409;SDS011;23275;48.914;12.566;2023-04-01T03:49:51;1.25;;;0.30;;
37409;SDS011;23275;48.914;12.566;2023-04-01T03:52:17;1.88;;;0.30;;
37409;SDS011;23275;48.914;12.566;2023-04-01T03:54:42;3.42;;;0.52;;
37409;SDS011;23275;48.914;12.566;2023-04-01T03:57:08;2.03;;;0.30;;
37409;SDS011;23275;48.914;12.566;2023-04-01T03:59:33;6.15;;;0.88;;
37409;SDS011;23275;48.914;12.566;2023-04-01T04:01:59;3.33;;;0.50;;
37409;SDS011;23275;48.914;12.566;2023-04-01T04:04:25;3.50;;;0.30;;
37409;SDS011;23275;48.914;12.566;2023-04-01T04:06:51;2.03;;;0.50;;
37409;SDS011;23275;48.914;12.566;2023-04-01T04:09:17;2.03;;;0.40;;
37409;SDS011;23275;48.914;12.566;2023-04-01T04:11:42;4.90;;;0.40;;
37409;SDS011;23275;48.914;12.566;2023-04-01T04:14:08;2.45;;;0.30;;
37409;SDS011;23275;48.914;12.566;2023-04-01T04:16:36;3.13;;;0.40;;
37409;SDS011;23275;48.914;12.566;2023-04-01T04:19:03;1.52;;;0.30;;
37409;SDS011;23275;48.914;12.566;2023-04-01T04:21:29;2.95;;;0.50;;
37409;SDS011;23275;48.914;12.566;2023-04-01T04:23:54;3.47;;;0.40;;
37409;SDS011;23275;48.914;12.566;2023-04-01T04:26:20;3.10;;;0.55;;
37409;SDS011;23275;48.914;12.566;2023-04-01T04:28:45;3.50;;;0.57;;
37409;SDS011;23275;48.914;12.566;2023-04-01T04:31:11;3.20;;;1.00;;
37409;SDS011;23275;48.914;12.566;2023-04-01T04:33:37;4.03;;;0.55;;
37409;SDS011;23275;48.914;12.566;2023-04-01T04:36:03;0.77;;;0.35;;
37409;SDS011;23275;48.914;12.566;2023-04-01T04:38:29;3.53;;;0.55;;
37409;SDS011;23275;48.914;12.566;2023-04-01T04:40:55;1.98;;;0.35;;
37409;SDS011;23275;48.914;12.566;2023-04-01T04:43:21;3.35;;;0.40;;
37409;SDS011;23275;48.914;12.566;2023-04-01T04:45:47;2.15;;;0.40;;
37409;SDS011;23275;48.914;12.566;2023-04-01T04:48:13;2.47;;;0.68;;
37409;SDS011;23275;48.914;12.566;2023-04-01T04:53:10;1.42;;;0.30;;
37409;SDS011;23275;48.914;12.566;2023-04-01T04:55:36;1.23;;;0.30;;
37409;SDS011;23275;48.914;12.566;2023-04-01T04:58:02;1.27;;;0.30;;
37409;SDS011;23275;48.914;12.566;2023-04-01T05:00:27;1.17;;;0.30;;
37409;SDS011;23275;48.914;12.566;2023-04-01T05:02:53;2.58;;;0.40;;
37409;SDS011;23275;48.914;12.566;2023-04-01T05:05:18;1.42;;;0.30;;
37409;SDS011;23275;48.914;12.566;2023-04-01T05:07:44;1.42;;;0.77;;
37409;SDS011;23275;48.914;12.566;2023-04-01T05:10:10;1.50;;;0.70;;
37409;SDS011;23275;48.914;12.566;2023-04-01T05:12:35;1.65;;;0.40;;
37409;SDS011;23275;48.914;12.566;2023-04-01T05:15:04;3.15;;;0.35;;
37409;SDS011;23275;48.914;12.566;2023-04-01T05:17:30;1.35;;;0.30;;
37409;SDS011;23275;48.914;12.566;2023-04-01T05:19:56;2.42;;;0.50;;
37409;SDS011;23275;48.914;12.566;2023-04-01T05:22:22;1.77;;;0.50;;
37409;SDS011;23275;48.914;12.566;2023-04-01T05:24:48;2.22;;;0.20;;
37409;SDS011;23275;48.914;12.566;2023-04-01T05:27:14;1.63;;;0.35;;
37409;SDS011;23275;48.914;12.566;2023-04-01T05:29:39;1.17;;;0.30;;
37409;SDS011;23275;48.914;12.566;2023-04-01T05:32:05;1.25;;;0.50;;
37409;SDS011;23275;48.914;12.566;2023-04-01T05:34:30;0.55;;;0.30;;
37409;SDS011;23275;48.914;12.566;2023-04-01T05:36:56;2.00;;;0.30;;
37409;SDS011;23275;48.914;12.566;2023-04-01T05:39:21;2.58;;;0.25;;
37409;SDS011;23275;48.914;12.566;2023-04-01T05:41:48;1.05;;;0.40;;
37409;SDS011;23275;48.914;12.566;2023-04-01T05:44:14;2.08;;;0.60;;
37409;SDS011;23275;48.914;12.566;2023-04-01T05:46:39;2.92;;;0.40;;
37409;SDS011;23275;48.914;12.566;2023-04-01T05:49:05;1.00;;;0.30;;
37409;SDS011;23275;48.914;12.566;2023-04-01T05:51:31;1.70;;;0.30;;
37409;SDS011;23275;48.914;12.566;2023-04-01T05:53:56;2.25;;;0.55;;
37409;SDS011;23275;48.914;12.566;2023-04-01T05:56:22;0.95;;;0.32;;
37409;SDS011;23275;48.914;12.566;2023-04-01T05:58:50;0.95;;;0.28;;
37409;SDS011;23275;48.914;12.566;2023-04-01T06:01:16;1.95;;;0.40;;
37409;SDS011;23275;48.914;12.566;2023-04-01T06:03:43;0.77;;;0.22;;
37409;SDS011;23275;48.914;12.566;2023-04-01T06:06:16;1.80;;;0.20;;
37409;SDS011;23275;48.914;12.566;2023-04-01T06:08:53;0.10;;;0.10;;
37409;SDS011;23275;48.914;12.566;2023-04-01T06:17:16;1.52;;;0.30;;
37409;SDS011;23275;48.914;12.566;2023-04-01T06:22:49;0.70;;;0.30;;
37409;SDS011;23275;48.914;12.566;2023-04-01T06:31:19;2.20;;;0.15;;
37409;SDS011;23275;48.914;12.566;2023-04-01T06:50:48;1.05;;;0.20;;
37409;SDS011;23275;48.914;12.566;2023-04-01T06:56:00;0.45;;;0.20;;
37409;SDS011;23275;48.914;12.566;2023-04-01T07:01:40;0.60;;;0.40;;
37409;SDS011;23275;48.914;12.566;2023-04-01T07:04:11;1.55;;;0.30;;
37409;SDS011;23275;48.914;12.566;2023-04-01T07:06:52;1.10;;;0.28;;
37409;SDS011;23275;48.914;12.566;2023-04-01T07:09:24;0.98;;;0.20;;
37409;SDS011;23275;48.914;12.566;2023-04-01T07:11:53;0.60;;;0.20;;
37409;SDS011;23275;48.914;12.566;2023-04-01T07:17:04;0.77;;;0.10;;
37409;SDS011;23275;48.914;12.566;2023-04-01T07:20:25;1.07;;;0.30;;
37409;SDS011;23275;48.914;12.566;2023-04-01T07:25:03;0.95;;;0.20;;
37409;SDS011;23275;48.914;12.566;2023-04-01T07:27:36;1.00;;;0.15;;
37409;SDS011;23275;48.914;12.566;2023-04-01T07:30:03;3.60;;;1.40;;
37409;SDS011;23275;48.914;12.566;2023-04-01T07:32:42;1.52;;;0.60;;
37409;SDS011;23275;48.914;12.566;2023-04-01T07:35:30;3.80;;;1.35;;
37409;SDS011;23275;48.914;12.566;2023-04-01T07:43:38;1.48;;;0.30;;
37409;SDS011;23275;48.914;12.566;2023-04-01T07:52:24;1.63;;;0.30;;
37409;SDS011;23275;48.914;12.566;2023-04-01T07:54:58;3.28;;;0.30;;
37409;SDS011;23275;48.914;12.566;2023-04-01T07:57:36;1.05;;;0.38;;
37409;SDS011;23275;48.914;12.566;2023-04-01T08:02:41;2.60;;;0.30;;
37409;SDS011;23275;48.914;12.566;2023-04-01T08:07:58;1.70;;;0.23;;
37409;SDS011;23275;48.914;12.566;2023-04-01T08:10:55;0.63;;;0.20;;
37409;SDS011;23275;48.914;12.566;2023-04-01T08:13:39;3.70;;;0.32;;
37409;SDS011;23275;48.914;12.566;2023-04-01T08:21:52;1.10;;;0.30;;
37409;SDS011;23275;48.914;12.566;2023-04-01T08:27:06;4.07;;;1.08;;
37409;SDS011;23275;48.914;12.566;2023-04-01T08:32:46;1.23;;;0.30;;
37409;SDS011;23275;48.914;12.566;2023-04-01T08:35:24;1.90;;;0.32;;
37409;SDS011;23275;48.914;12.566;2023-04-01T08:37:59;1.27;;;0.30;;
37409;SDS011;23275;48.914;12.566;2023-04-01T08:40:35;0.47;;;0.20;;
37409;SDS011;23275;48.914;12.566;2023-04-01T08:43:16;2.28;;;0.35;;
37409;SDS011;23275;48.914;12.566;2023-04-01T08:56:27;5.75;;;0.20;;
37409;SDS011;23275;48.914;12.566;2023-04-01T09:24:33;5.35;;;2.58;;
37409;SDS011;23275;48.914;12.566;2023-04-01T09:32:52;13.10;;;5.35;;
37409;SDS011;23275;48.914;12.566;2023-04-01T09:35:46;17.08;;;6.72;;
37409;SDS011;23275;48.914;12.566;2023-04-01T09:41:26;37.03;;;13.93;;
37409;SDS011;23275;48.914;12.566;2023-04-01T09:46:42;28.92;;;9.73;;
37409;SDS011;23275;48.914;12.566;2023-04-01T10:14:31;18.33;;;8.27;;
37409;SDS011;23275;48.914;12.566;2023-04-01T10:17:19;44.30;;;20.52;;
37409;SDS011;23275;48.914;12.566;2023-04-01T10:20:11;8.63;;;3.65;;
37409;SDS011;23275;48.914;12.566;2023-04-01T10:26:11;11.80;;;4.35;;
37409;SDS011;23275;48.914;12.566;2023-04-01T10:28:33;9.35;;;4.95;;
37409;SDS011;23275;48.914;12.566;2023-04-01T10:31:28;8.05;;;4.00;;
37409;SDS011;23275;48.914;12.566;2023-04-01T10:40:14;14.13;;;7.20;;
37409;SDS011;23275;48.914;12.566;2023-04-01T10:45:58;10.88;;;5.22;;
37409;SDS011;23275;48.914;12.566;2023-04-01T10:48:47;10.60;;;4.85;;
37409;SDS011;23275;48.914;12.566;2023-04-01T11:08:30;3.13;;;1.30;;
37409;SDS011;23275;48.914;12.566;2023-04-01T11:11:25;2.65;;;1.40;;
37409;SDS011;23275;48.914;12.566;2023-04-01T11:22:56;1.25;;;0.60;;
37409;SDS011;23275;48.914;12.566;2023-04-01T11:25:30;2.40;;;1.00;;
37409;SDS011;23275;48.914;12.566;2023-04-01T11:28:24;2.15;;;0.70;;
37409;SDS011;23275;48.914;12.566;2023-04-01T11:31:34;2.60;;;1.60;;
37409;SDS011;23275;48.914;12.566;2023-04-01T11:37:32;1.58;;;0.80;;
37409;SDS011;23275;48.914;12.566;2023-04-01T11:47:45;1.65;;;0.77;;
37409;SDS011;23275;48.914;12.566;2023-04-01T11:50:24;2.35;;;0.45;;
37409;SDS011;23275;48.914;12.566;2023-04-01T11:58:11;3.85;;;2.08;;
37409;SDS011;23275;48.914;12.566;2023-04-01T12:00:47;2.20;;;0.70;;
37409;SDS011;23275;48.914;12.566;2023-04-01T12:06:21;2.83;;;1.10;;
37409;SDS011;23275;48.914;12.566;2023-04-01T12:09:18;2.40;;;0.30;;
37409;SDS011;23275;48.914;12.566;2023-04-01T12:12:03;0.38;;;0.20;;
37409;SDS011;23275;48.914;12.566;2023-04-01T12:14:44;0.60;;;0.25;;
37409;SDS011;23275;48.914;12.566;2023-04-01T12:37:06;0.40;;;0.20;;
37409;SDS011;23275;48.914;12.566;2023-04-01T12:39:44;1.23;;;0.22;;
37409;SDS011;23275;48.914;12.566;2023-04-01T12:53:15;0.45;;;0.20;;
37409;SDS011;23275;48.914;12.566;2023-04-01T12:56:00;2.60;;;0.30;;
37409;SDS011;23275;48.914;12.566;2023-04-01T12:58:38;1.33;;;0.50;;
37409;SDS011;23275;48.914;12.566;2023-04-01T13:01:36;0.55;;;0.25;;
37409;SDS011;23275;48.914;12.566;2023-04-01T13:07:22;0.60;;;0.40;;
37409;SDS011;23275;48.914;12.566;2023-04-01T13:10:15;1.20;;;0.50;;
37409;SDS011;23275;48.914;12.566;2023-04-01T13:16:14;0.45;;;0.30;;
37409;SDS011;23275;48.914;12.566;2023-04-01T13:25:10;1.13;;;0.50;;
37409;SDS011;23275;48.914;12.566;2023-04-01T13:27:44;1.77;;;0.60;;
37409;SDS011;23275;48.914;12.566;2023-04-01T13:44:14;5.22;;;2.42;;
37409;SDS011;23275;48.914;12.566;2023-04-01T13:46:52;3.13;;;0.82;;
37409;SDS011;23275;48.914;12.566;2023-04-01T13:52:33;0.98;;;0.60;;
37409;SDS011;23275;48.914;12.566;2023-04-01T13:55:20;2.60;;;1.10;;
37409;SDS011;23275;48.914;12.566;2023-04-01T14:03:42;1.60;;;0.30;;
37409;SDS011;23275;48.914;12.566;2023-04-01T14:17:53;0.20;;;0.20;;
37409;SDS011;23275;48.914;12.566;2023-04-01T14:20:33;0.95;;;0.30;;
37409;SDS011;23275;48.914;12.566;2023-04-01T14:23:11;0.75;;;0.40;;
37409;SDS011;23275;48.914;12.566;2023-04-01T14:25:54;0.80;;;0.22;;
37409;SDS011;23275;48.914;12.566;2023-04-01T14:36:33;4.20;;;2.28;;
37409;SDS011;23275;48.914;12.566;2023-04-01T14:39:22;3.38;;;1.75;;
37409;SDS011;23275;48.914;12.566;2023-04-01T14:50:11;3.70;;;1.85;;
37409;SDS011;23275;48.914;12.566;2023-04-01T14:53:29;7.50;;;4.25;;
37409;SDS011;23275;48.914;12.566;2023-04-01T14:55:41;1.42;;;0.40;;
37409;SDS011;23275;48.914;12.566;2023-04-01T14:58:16;4.78;;;2.80;;
37409;SDS011;23275;48.914;12.566;2023-04-01T15:06:10;5.25;;;2.55;;
37409;SDS011;23275;48.914;12.566;2023-04-01T15:17:48;13.55;;;7.18;;
37409;SDS011;23275;48.914;12.566;2023-04-01T15:23:02;2.60;;;1.13;;
37409;SDS011;23275;48.914;12.566;2023-04-01T15:34:16;0.80;;;0.40;;
37409;SDS011;23275;48.914;12.566;2023-04-01T15:42:47;6.10;;;2.20;;
37409;SDS011;23275;48.914;12.566;2023-04-01T15:51:19;3.60;;;2.00;;
37409;SDS011;23275;48.914;12.566;2023-04-01T15:54:25;8.52;;;3.20;;
37409;SDS011;23275;48.914;12.566;2023-04-01T15:59:28;6.28;;;2.25;;
37409;SDS011;23275;48.914;12.566;2023-04-01T16:02:13;9.93;;;5.03;;
37409;SDS011;23275;48.914;12.566;2023-04-01T16:05:22;19.30;;;9.80;;
37409;SDS011;23275;48.914;12.566;2023-04-01T16:16:19;11.75;;;4.65;;
37409;SDS011;23275;48.914;12.566;2023-04-01T16:22:01;4.10;;;1.65;;
37409;SDS011;23275;48.914;12.566;2023-04-01T16:27:53;11.45;;;6.43;;
37409;SDS011;23275;48.914;12.566;2023-04-01T16:30:32;11.18;;;7.28;;
37409;SDS011;23275;48.914;12.566;2023-04-01T16:33:22;7.47;;;4.43;;
37409;SDS011;23275;48.914;12.566;2023-04-01T16:44:31;5.55;;;3.17;;
37409;SDS011;23275;48.914;12.566;2023-04-01T16:47:30;8.73;;;5.15;;
37409;SDS011;23275;48.914;12.566;2023-04-01T16:50:19;8.98;;;5.22;;
37409;SDS011;23275;48.914;12.566;2023-04-01T16:58:27;2.90;;;0.70;;
37409;SDS011;23275;48.914;12.566;2023-04-01T17:01:04;1.25;;;0.50;;
37409;SDS011;23275;48.914;12.566;2023-04-01T17:03:40;2.03;;;0.90;;
37409;SDS011;23275;48.914;12.566;2023-04-01T17:06:28;4.45;;;2.33;;
37409;SDS011;23275;48.914;12.566;2023-04-01T17:09:03;5.30;;;3.30;;
37409;SDS011;23275;48.914;12.566;2023-04-01T17:12:07;1.65;;;0.80;;
37409;SDS011;23275;48.914;12.566;2023-04-01T17:17:42;9.20;;;5.90;;
37409;SDS011;23275;48.914;12.566;2023-04-01T17:28:34;2.40;;;1.38;;
37409;SDS011;23275;48.914;12.566;2023-04-01T17:31:45;2.92;;;1.67;;
37409;SDS011;23275;48.914;12.566;2023-04-01T17:48:11;1.50;;;0.80;;
37409;SDS011;23275;48.914;12.566;2023-04-01T18:01:51;0.82;;;0.50;;
37409;SDS011;23275;48.914;12.566;2023-04-01T18:21:23;3.92;;;2.05;;
37409;SDS011;23275;48.914;12.566;2023-04-01T18:29:51;1.48;;;0.40;;
37409;SDS011;23275;48.914;12.566;2023-04-01T18:32:26;0.90;;;0.40;;
37409;SDS011;23275;48.914;12.566;2023-04-01T18:38:00;0.50;;;0.22;;
37409;SDS011;23275;48.914;12.566;2023-04-01T18:52:42;4.32;;;1.95;;
37409;SDS011;23275;48.914;12.566;2023-04-01T19:01:11;1.38;;;0.75;;
37409;SDS011;23275;48.914;12.566;2023-04-01T19:06:43;6.22;;;3.83;;
37409;SDS011;23275;48.914;12.566;2023-04-01T19:09:17;3.42;;;0.77;;
37409;SDS011;23275;48.914;12.566;2023-04-01T19:19:56;1.65;;;0.50;;
37409;SDS011;23275;48.914;12.566;2023-04-01T19:25:47;0.70;;;0.50;;
37409;SDS011;23275;48.914;12.566;2023-04-01T19:34:08;1.65;;;0.60;;
37409;SDS011;23275;48.914;12.566;2023-04-01T19:37:02;1.37;;;0.60;;
37409;SDS011;23275;48.914;12.566;2023-04-01T19:45:03;1.40;;;0.80;;
37409;SDS011;23275;48.914;12.566;2023-04-01T19:52:54;0.68;;;0.30;;
37409;SDS011;23275;48.914;12.566;2023-04-01T19:55:42;1.77;;;0.60;;
37409;SDS011;23275;48.914;12.566;2023-04-01T19:58:16;1.27;;;0.40;;
37409;SDS011;23275;48.914;12.566;2023-04-01T20:00:47;1.45;;;0.57;;
37409;SDS011;23275;48.914;12.566;2023-04-01T20:03:38;1.13;;;0.50;;
37409;SDS011;23275;48.914;12.566;2023-04-01T20:06:39;1.08;;;0.60;;
37409;SDS011;23275;48.914;12.566;2023-04-01T20:14:45;2.42;;;0.93;;
37409;SDS011;23275;48.914;12.566;2023-04-01T20:27:47;5.43;;;0.80;;
37409;SDS011;23275;48.914;12.566;2023-04-01T20:40:51;1.42;;;0.40;;
37409;SDS011;23275;48.914;12.566;2023-04-01T20:43:33;1.98;;;0.63;;
37409;SDS011;23275;48.914;12.566;2023-04-01T20:46:16;1.08;;;0.47;;
37409;SDS011;23275;48.914;12.566;2023-04-01T21:11:31;2.05;;;0.32;;
37409;SDS011;23275;48.914;12.566;2023-04-01T21:22:53;4.15;;;2.05;;
37409;SDS011;23275;48.914;12.566;2023-04-01T21:25:44;4.05;;;1.25;;
37409;SDS011;23275;48.914;12.566;2023-04-01T21:28:22;1.15;;;0.52;;
37409;SDS011;23275;48.914;12.566;2023-04-01T21:31:05;1.30;;;0.55;;
37409;SDS011;23275;48.914;12.566;2023-04-01T21:33:48;1.33;;;0.50;;
37409;SDS011;23275;48.914;12.566;2023-04-01T21:39:46;1.25;;;0.47;;
37409;SDS011;23275;48.914;12.566;2023-04-01T21:42:31;2.65;;;0.65;;
37409;SDS011;23275;48.914;12.566;2023-04-01T21:50:53;2.95;;;0.60;;
37409;SDS011;23275;48.914;12.566;2023-04-01T21:53:55;1.98;;;0.60;;
37409;SDS011;23275;48.914;12.566;2023-04-01T21:56:49;1.13;;;0.50;;
37409;SDS011;23275;48.914;12.566;2023-04-01T21:59:55;1.20;;;0.60;;
37409;SDS011;23275;48.914;12.566;2023-04-01T22:05:30;1.02;;;0.60;;
37409;SDS011;23275;48.914;12.566;2023-04-01T22:13:48;0.73;;;0.43;;
37409;SDS011;23275;48.914;12.566;2023-04-01T22:19:06;1.10;;;0.45;;
37409;SDS011;23275;48.914;12.566;2023-04-01T22:30:06;3.75;;;0.57;;
37409;SDS011;23275;48.914;12.566;2023-04-01T22:32:44;1.73;;;0.45;;
37409;SDS011;23275;48.914;12.566;2023-04-01T22:35:28;1.02;;;0.40;;
37409;SDS011;23275;48.914;12.566;2023-04-01T22:40:47;1.45;;;0.50;;
37409;SDS011;23275;48.914;12.566;2023-04-01T22:43:31;1.73;;;0.60;;
37409;SDS011;23275;48.914;12.566;2023-04-01T22:48:54;0.95;;;0.40;;
37409;SDS011;23275;48.914;12.566;2023-04-01T22:59:56;1.65;;;0.60;;
37409;SDS011;23275;48.914;12.566;2023-04-01T23:02:33;1.75;;;0.43;;
37409;SDS011;23275;48.914;12.566;2023-04-01T23:05:03;0.95;;;0.40;;
37409;SDS011;23275;48.914;12.566;2023-04-01T23:10:02;1.00;;;0.47;;
37409;SDS011;23275;48.914;12.566;2023-04-01T23:12:30;3.00;;;2.03;;
37409;SDS011;23275;48.914;12.566;2023-04-01T23:14:58;1.30;;;0.50;;
37409;SDS011;23275;48.914;12.566;2023-04-01T23:17:37;2.60;;;0.52;;
37409;SDS011;23275;48.914;12.566;2023-04-01T23:20:28;1.13;;;0.43;;
37409;SDS011;23275;48.914;12.566;2023-04-01T23:26:17;1.90;;;0.60;;
37409;SDS011;23275;48.914;12.566;2023-04-01T23:31:27;3.13;;;0.70;;
37409;SDS011;23275;48.914;12.566;2023-04-01T23:34:02;1.83;;;0.63;;
37409;SDS011;23275;48.914;12.566;2023-04-01T23:36:56;2.10;;;0.82;;
37409;SDS011;23275;48.914;12.566;2023-04-01T23:39:44;1.10;;;0.60;;
37409;SDS011;23275;48.914;12.566;2023-04-01T23:44:54;2.05;;;0.70;;
37409;SDS011;23275;48.914;12.566;2023-04-01T23:47:23;2.25;;;0.70;;
37409;SDS011;23275;48.914;12.566;2023-04-01T23:49:59;2.92;;;0.80;;
37409;SDS011;23275;48.914;12.566;2023-04-01T23:52:52;2.78;;;0.73;;
37409;SDS011;23275;48.914;12.566;2023-04-01T23:55:27;2.38;;;0.40;;
37409;SDS011;23275;48.914;12.566;2023-04-01T23:58:02;1.17;;;0.47;;
